Time;durP1;ratioP1;P1;durP2;ratioP2;P2;SDS_P1;SDS_P2;PMS_P1;PMS_P2;Temp;Humidity;BMP_temperature;BMP_pressure;BME280_temperature;BME280_humidity;BME280_pressure;Samples;Min_cycle;Max_cycle;Signal;HPM_P1;HPM_P2
2023/09/04 00:00:29;;;;;;;10.40;5.10;;;;;;;19.61;100.00;95245.75;4921857;29;20449;-82
2023/09/04 00:02:55;;;;;;;8.93;4.57;;;;;;;19.66;100.00;95244.09;4921782;29;20050;-82
2023/09/04 00:05:20;;;;;;;7.60;4.07;;;;;;;19.76;100.00;95239.28;4922076;29;20361;-82
2023/09/04 00:07:45;;;;;;;9.95;4.63;;;;;;;19.39;100.00;95245.78;4905953;29;20031;-82
2023/09/04 00:10:12;;;;;;;9.48;4.72;;;;;;;19.10;100.00;95234.47;4921575;29;20473;-82
2023/09/04 00:12:38;;;;;;;8.75;4.78;;;;;;;18.88;100.00;95243.16;4921867;29;20400;-82
2023/09/04 00:15:04;;;;;;;12.10;5.25;;;;;;;18.84;100.00;95237.63;4921559;29;20038;-82
2023/09/04 00:17:39;;;;;;;14.50;5.15;;;;;;;18.86;100.00;95237.34;4905816;29;20070;-82
2023/09/04 00:20:05;;;;;;;11.18;5.03;;;;;;;18.99;100.00;95233.91;4935573;29;20035;-82
2023/09/04 00:22:30;;;;;;;12.93;5.68;;;;;;;18.83;100.00;95235.31;4940494;29;20069;-82
2023/09/04 00:24:55;;;;;;;7.75;4.95;;;;;;;19.07;100.00;95235.84;4940446;29;20042;-82
2023/09/04 00:27:21;;;;;;;9.73;5.00;;;;;;;19.09;100.00;95237.44;4957811;29;20035;-82
2023/09/04 00:29:46;;;;;;;9.15;5.10;;;;;;;19.05;100.00;95234.59;4940230;29;20345;-82
2023/09/04 00:32:12;;;;;;;12.75;4.70;;;;;;;19.01;100.00;95231.72;4957809;29;20524;-82
2023/09/04 00:34:37;;;;;;;11.25;5.47;;;;;;;18.96;100.00;95225.72;4939508;29;20031;-82
2023/09/04 00:37:04;;;;;;;10.43;5.22;;;;;;;18.99;100.00;95223.28;4956163;29;20047;-82
2023/09/04 00:39:29;;;;;;;8.60;5.10;;;;;;;18.90;100.00;95225.03;4939357;29;20046;-82
2023/09/04 00:41:54;;;;;;;12.00;5.28;;;;;;;19.00;100.00;95224.84;4938755;29;20031;-82
2023/09/04 00:44:20;;;;;;;9.88;5.13;;;;;;;18.99;100.00;95225.13;4956449;29;20039;-82
2023/09/04 00:46:45;;;;;;;9.43;5.63;;;;;;;18.93;100.00;95225.22;4957342;29;20040;-82
2023/09/04 00:49:12;;;;;;;8.10;4.65;;;;;;;19.13;100.00;95225.13;4957232;29;20445;-82
2023/09/04 00:51:38;;;;;;;10.20;4.72;;;;;;;19.07;100.00;95222.56;4957434;29;20045;-82
2023/09/04 00:54:04;;;;;;;7.65;4.53;;;;;;;19.01;100.00;95220.31;4939805;29;20047;-82
2023/09/04 00:56:30;;;;;;;7.93;4.93;;;;;;;18.91;100.00;95221.31;4939866;29;20090;-82
2023/09/04 00:58:56;;;;;;;13.57;4.70;;;;;;;19.16;100.00;95237.78;4939904;29;20050;-82
2023/09/04 01:01:21;;;;;;;10.60;4.97;;;;;;;19.25;100.00;95236.00;4956535;28;20055;-82
2023/09/04 01:03:46;;;;;;;11.98;5.20;;;;;;;19.27;100.00;95230.34;4956386;29;20035;-82
2023/09/04 01:06:13;;;;;;;11.48;5.53;;;;;;;18.95;100.00;95235.56;4956845;29;20037;-82
2023/09/04 01:08:38;;;;;;;8.63;4.57;;;;;;;18.74;100.00;95238.66;4939492;29;20039;-82
2023/09/04 01:11:36;;;;;;;8.23;4.60;;;;;;;18.87;100.00;95245.03;4939592;29;20035;-82
2023/09/04 01:14:05;;;;;;;13.90;4.97;;;;;;;19.06;100.00;95244.13;4939689;29;20039;-82
2023/09/04 01:16:31;;;;;;;11.50;4.63;;;;;;;18.99;100.00;95244.53;4939835;29;20167;-83
2023/09/04 01:18:56;;;;;;;9.80;4.38;;;;;;;18.89;100.00;95234.09;4939585;29;20433;-82
2023/09/04 01:21:22;;;;;;;10.23;4.50;;;;;;;18.69;100.00;95228.16;4939708;29;20081;-82
2023/09/04 01:23:47;;;;;;;6.88;4.35;;;;;;;18.94;100.00;95226.81;4956975;29;20045;-82
2023/09/04 01:26:15;;;;;;;9.77;4.80;;;;;;;18.89;100.00;95224.28;4956783;29;20043;-82
2023/09/04 01:29:08;;;;;;;7.90;4.80;;;;;;;18.51;100.00;95220.03;4939541;29;20066;-82
2023/09/04 01:31:37;;;;;;;10.53;5.10;;;;;;;18.36;100.00;95225.59;4956868;29;20035;-82
2023/09/04 01:34:26;;;;;;;8.32;5.10;;;;;;;18.33;100.00;95228.84;4939307;29;20049;-82
2023/09/04 01:36:51;;;;;;;8.45;5.13;;;;;;;18.27;100.00;95222.88;4939319;29;20031;-82
2023/09/04 01:39:17;;;;;;;13.57;5.68;;;;;;;18.32;100.00;95228.09;4923539;29;20045;-82
2023/09/04 01:41:42;;;;;;;14.00;5.53;;;;;;;18.33;100.00;95220.91;4939191;29;20051;-82
2023/09/04 01:44:08;;;;;;;12.52;6.20;;;;;;;18.47;100.00;95211.06;4956708;29;20445;-82
2023/09/04 01:46:34;;;;;;;11.55;5.43;;;;;;;18.49;100.00;95214.19;4939242;29;20113;-82
2023/09/04 01:49:00;;;;;;;17.35;5.97;;;;;;;18.49;100.00;95205.47;4939283;29;20035;-82
2023/09/04 01:51:25;;;;;;;8.35;4.70;;;;;;;18.44;100.00;95202.94;4939316;29;20098;-82
2023/09/04 01:53:51;;;;;;;12.90;5.03;;;;;;;18.46;100.00;95206.84;4956285;29;20032;-82
2023/09/04 01:56:16;;;;;;;10.75;5.65;;;;;;;18.46;100.00;95201.53;4939406;29;20119;-82
2023/09/04 01:58:42;;;;;;;8.95;4.80;;;;;;;18.35;100.00;95194.84;4956239;29;20035;-82
2023/09/04 02:01:07;;;;;;;8.35;4.78;;;;;;;18.48;100.00;95195.94;4939346;29;20043;-82
2023/09/04 02:03:33;;;;;;;7.90;4.82;;;;;;;18.70;100.00;95195.22;4939220;29;20039;-82
2023/09/04 02:05:58;;;;;;;10.13;4.80;;;;;;;18.82;100.00;95193.91;4939454;29;20566;-82
2023/09/04 02:08:24;;;;;;;11.18;5.15;;;;;;;18.21;100.00;95187.69;4939150;29;20456;-82
2023/09/04 02:10:49;;;;;;;13.70;4.93;;;;;;;18.10;100.00;95186.34;4956544;29;20449;-82
2023/09/04 02:13:15;;;;;;;8.82;4.50;;;;;;;18.46;100.00;95187.50;4923860;29;20035;-82
2023/09/04 02:15:40;;;;;;;9.02;5.00;;;;;;;18.58;100.00;95181.66;4960224;29;20047;-82
2023/09/04 02:18:06;;;;;;;11.63;5.20;;;;;;;18.63;100.00;95184.19;4942835;29;20393;-82
2023/09/04 02:20:32;;;;;;;10.00;4.35;;;;;;;18.63;100.00;95189.50;4942627;29;20053;-82
2023/09/04 02:22:58;;;;;;;9.52;5.20;;;;;;;18.68;100.00;95181.47;4942805;29;20042;-82
2023/09/04 02:25:24;;;;;;;11.65;6.28;;;;;;;18.14;100.00;95189.16;4927051;29;20031;-82
2023/09/04 02:27:49;;;;;;;11.45;6.10;;;;;;;18.12;100.00;95184.19;4942504;29;20035;-82
2023/09/04 02:30:15;;;;;;;8.48;5.40;;;;;;;18.35;100.00;95178.94;4926745;29;20045;-82
2023/09/04 02:32:41;;;;;;;10.50;5.75;;;;;;;18.44;100.00;95179.06;4942911;29;20353;-82
2023/09/04 02:35:06;;;;;;;10.07;5.38;;;;;;;18.44;100.00;95177.16;4942614;29;20039;-82
2023/09/04 02:37:32;;;;;;;11.07;4.82;;;;;;;18.41;100.00;95174.31;4959714;29;20082;-82
2023/09/04 02:39:57;;;;;;;14.75;5.00;;;;;;;18.45;100.00;95178.75;4942222;29;20046;-82
2023/09/04 02:42:23;;;;;;;7.45;4.18;;;;;;;18.42;100.00;95176.69;4942561;29;20405;-82
2023/09/04 02:44:48;;;;;;;10.20;4.47;;;;;;;18.51;100.00;95171.47;4942556;29;20070;-82
2023/09/04 02:47:14;;;;;;;10.63;4.10;;;;;;;18.47;100.00;95168.59;4942010;29;20050;-82
2023/09/04 02:49:39;;;;;;;8.35;3.63;;;;;;;18.34;100.00;95161.47;4942368;29;20061;-82
2023/09/04 02:52:05;;;;;;;7.57;3.38;;;;;;;18.46;100.00;95166.28;4942500;29;20110;-82
2023/09/04 02:54:30;;;;;;;8.02;3.97;;;;;;;18.42;100.00;95162.63;4959569;29;20319;-82
2023/09/04 02:56:55;;;;;;;7.57;3.92;;;;;;;18.37;100.00;95151.03;4942907;29;20046;-82
2023/09/04 02:59:21;;;;;;;5.90;3.83;;;;;;;18.41;100.00;95156.53;4944240;29;20040;-82
2023/09/04 03:01:49;;;;;;;6.22;4.63;;;;;;;18.29;100.00;95153.63;4944011;29;20043;-82
2023/09/04 03:04:15;;;;;;;10.38;5.32;;;;;;;18.18;100.00;95145.84;4944327;29;20121;-82
2023/09/04 03:06:40;;;;;;;9.88;5.05;;;;;;;18.22;100.00;95146.84;4943975;29;20046;-82
2023/09/04 03:09:06;;;;;;;14.95;5.20;;;;;;;18.32;100.00;95148.50;4961201;29;20035;-82
2023/09/04 03:11:31;;;;;;;8.60;4.60;;;;;;;18.36;100.00;95138.88;4960884;29;20035;-82
2023/09/04 03:13:57;;;;;;;14.30;4.20;;;;;;;18.42;100.00;95144.84;4960128;29;20430;-82
2023/09/04 03:16:22;;;;;;;5.60;3.92;;;;;;;18.30;100.00;95139.28;4943376;29;20043;-82
2023/09/04 03:18:48;;;;;;;7.50;4.13;;;;;;;17.80;100.00;95141.53;4960327;29;20121;-82
2023/09/04 03:21:13;;;;;;;7.50;3.88;;;;;;;18.02;100.00;95144.56;4943143;29;20445;-82
2023/09/04 03:23:39;;;;;;;9.40;5.38;;;;;;;17.74;100.00;95141.91;4960308;29;20047;-82
2023/09/04 03:26:04;;;;;;;6.70;4.50;;;;;;;17.98;100.00;95135.66;4942454;29;20081;-82
2023/09/04 03:28:29;;;;;;;9.05;4.45;;;;;;;18.04;100.00;95137.94;4960917;29;20121;-82
2023/09/04 03:30:55;;;;;;;8.23;4.18;;;;;;;18.04;100.00;95134.47;4960914;29;20031;-82
2023/09/04 03:33:20;;;;;;;7.25;4.25;;;;;;;18.00;100.00;95138.78;4960851;29;20030;-82
2023/09/04 03:35:46;;;;;;;8.23;4.43;;;;;;;18.02;100.00;95131.31;4960863;29;20039;-82
2023/09/04 03:38:11;;;;;;;9.10;4.95;;;;;;;17.61;100.00;95130.22;4943234;29;20082;-82
2023/09/04 03:40:37;;;;;;;11.45;5.15;;;;;;;17.35;100.00;95130.69;4943393;29;20043;-82
2023/09/04 03:43:02;;;;;;;7.45;4.47;;;;;;;17.45;100.00;95122.56;4960673;29;20039;-82
2023/09/04 03:45:34;;;;;;;9.88;4.90;;;;;;;17.51;100.00;95121.38;4960808;29;20129;-82
2023/09/04 03:48:01;;;;;;;7.82;4.45;;;;;;;17.62;100.00;95131.81;4943342;29;20039;-82
2023/09/04 03:50:27;;;;;;;8.32;4.97;;;;;;;17.72;100.00;95123.66;4943400;29;20050;-82
2023/09/04 03:52:53;;;;;;;13.05;4.75;;;;;;;17.59;100.00;95129.75;4960257;29;20390;-82
2023/09/04 03:55:18;;;;;;;8.00;4.30;;;;;;;17.84;100.00;95120.53;4943485;29;20071;-82
2023/09/04 03:57:46;;;;;;;9.13;4.40;;;;;;;17.58;100.00;95136.91;4943151;29;20039;-82
2023/09/04 04:00:19;;;;;;;8.27;4.63;;;;;;;17.59;100.00;95132.41;4943472;29;20031;-82
2023/09/04 04:02:46;;;;;;;11.88;4.55;;;;;;;17.61;100.00;95132.88;4942781;29;20031;-82
2023/09/04 04:05:13;;;;;;;8.35;4.80;;;;;;;17.47;100.00;95128.34;4927198;29;20066;-82
2023/09/04 04:07:39;;;;;;;8.10;4.57;;;;;;;17.37;100.00;95129.31;4942280;29;20035;-82
2023/09/04 04:10:07;;;;;;;9.98;4.93;;;;;;;17.54;100.00;95133.28;4942933;29;20110;-82
2023/09/04 04:12:34;;;;;;;9.85;4.38;;;;;;;17.34;100.00;95142.34;4943263;29;20035;-82
2023/09/04 04:15:03;;;;;;;10.15;4.53;;;;;;;17.27;100.00;95137.44;4942684;29;20031;-82
2023/09/04 04:17:29;;;;;;;7.15;5.20;;;;;;;17.40;100.00;95135.09;4943153;29;20122;-82
2023/09/04 04:19:54;;;;;;;7.57;4.13;;;;;;;17.52;100.00;95132.78;4959628;29;20467;-84
2023/09/04 04:22:20;;;;;;;9.38;4.32;;;;;;;17.61;100.00;95135.53;4942715;29;20041;-84
2023/09/04 04:24:46;;;;;;;9.07;4.25;;;;;;;17.55;100.00;95140.13;4942303;29;20046;-84
2023/09/04 04:27:12;;;;;;;6.07;4.20;;;;;;;17.68;100.00;95146.50;4942143;29;20426;-84
2023/09/04 04:29:38;;;;;;;7.90;4.00;;;;;;;17.75;100.00;95143.47;4926851;29;20030;-84
2023/09/04 04:32:05;;;;;;;6.50;4.10;;;;;;;17.86;100.00;95142.22;4926720;29;20027;-84
2023/09/04 04:34:30;;;;;;;9.35;3.78;;;;;;;17.87;100.00;95141.13;4942151;29;20042;-84
2023/09/04 04:36:56;;;;;;;7.22;3.67;;;;;;;18.00;100.00;95147.50;4942115;29;20035;-84
2023/09/04 04:39:22;;;;;;;9.15;4.70;;;;;;;17.83;100.00;95148.09;4942387;29;20170;-83
2023/09/04 04:41:48;;;;;;;8.00;4.20;;;;;;;17.85;100.00;95155.75;4942407;29;20035;-83
2023/09/04 04:44:14;;;;;;;10.20;4.15;;;;;;;17.33;100.00;95154.03;4959529;29;20058;-83
2023/09/04 04:46:40;;;;;;;9.38;4.25;;;;;;;17.25;100.00;95150.19;4938830;29;20122;-84
2023/09/04 04:49:06;;;;;;;9.20;4.90;;;;;;;17.37;100.00;95153.16;4941975;29;20023;-84
2023/09/04 04:51:31;;;;;;;13.63;4.88;;;;;;;17.42;100.00;95151.50;4941719;29;20319;-84
2023/09/04 04:53:56;;;;;;;11.77;4.63;;;;;;;17.53;100.00;95152.88;4957453;29;20035;-84
2023/09/04 04:56:22;;;;;;;6.38;4.60;;;;;;;17.62;100.00;95153.00;4922734;29;20039;-84
2023/09/04 04:58:48;;;;;;;8.98;4.30;;;;;;;17.56;100.00;95154.16;4923115;29;20072;-84
2023/09/04 05:01:13;;;;;;;15.57;4.95;;;;;;;17.51;100.00;95160.34;4922986;29;20039;-84
2023/09/04 05:03:39;;;;;;;12.68;5.65;;;;;;;17.37;100.00;95161.09;4906784;29;20036;-84
2023/09/04 05:06:08;;;;;;;10.93;4.68;;;;;;;17.49;100.00;95159.81;4928733;29;20070;-83
2023/09/04 05:08:34;;;;;;;9.30;5.03;;;;;;;17.73;100.00;95170.28;4943556;29;20411;-83
2023/09/04 05:11:02;;;;;;;9.05;4.68;;;;;;;17.83;100.00;95174.63;4922811;29;20409;-83
2023/09/04 05:13:28;;;;;;;9.82;5.20;;;;;;;17.83;100.00;95174.63;4907248;29;20081;-83
2023/09/04 05:15:54;;;;;;;9.13;4.80;;;;;;;17.67;100.00;95179.41;4922851;29;20039;-83
2023/09/04 05:18:19;;;;;;;8.40;4.63;;;;;;;17.90;100.00;95171.56;4922603;29;20039;-83
2023/09/04 05:20:45;;;;;;;10.02;4.60;;;;;;;18.14;100.00;95168.75;4906674;29;20315;-83
2023/09/04 05:23:10;;;;;;;9.27;4.75;;;;;;;18.08;100.00;95169.94;4948343;29;20043;-83
2023/09/04 05:25:35;;;;;;;11.27;5.05;;;;;;;17.63;100.00;95179.19;4957356;29;20035;-84
2023/09/04 05:28:01;;;;;;;7.95;5.45;;;;;;;17.57;100.00;95180.38;4941147;29;20035;-84
2023/09/04 05:30:26;;;;;;;11.02;4.65;;;;;;;17.84;100.00;95186.00;4941423;29;20090;-84
2023/09/04 05:32:55;;;;;;;8.00;4.72;;;;;;;18.12;100.00;95180.72;4958541;29;20038;-84
2023/09/04 05:35:21;;;;;;;11.15;4.90;;;;;;;18.03;100.00;95178.78;4941614;29;20039;-84
2023/09/04 05:37:46;;;;;;;11.30;5.00;;;;;;;17.95;100.00;95177.56;4925726;29;20353;-84
2023/09/04 05:40:12;;;;;;;7.47;4.75;;;;;;;18.28;100.00;95181.22;4941141;29;20043;-84
2023/09/04 05:42:37;;;;;;;12.23;5.25;;;;;;;18.31;100.00;95176.13;4958854;29;20031;-84
2023/09/04 05:45:03;;;;;;;7.50;4.40;;;;;;;18.58;100.00;95179.81;4925744;29;20070;-84
2023/09/04 05:47:29;;;;;;;8.55;4.80;;;;;;;18.87;100.00;95175.19;4941424;28;20027;-84
2023/09/04 05:49:54;;;;;;;6.88;4.53;;;;;;;19.11;100.00;95182.13;4929294;29;20452;-84
2023/09/04 05:52:19;;;;;;;6.53;4.63;;;;;;;19.27;100.00;95174.56;4958775;29;20038;-84
2023/09/04 05:54:45;;;;;;;7.25;4.43;;;;;;;19.53;100.00;95181.91;4946970;29;20031;-83
2023/09/04 05:57:11;;;;;;;11.50;4.43;;;;;;;19.63;100.00;95179.78;4963592;28;20105;-83
2023/09/04 05:59:37;;;;;;;7.28;4.32;;;;;;;19.15;100.00;95185.75;4962307;29;20035;-84
2023/09/04 06:02:02;;;;;;;11.10;3.95;;;;;;;19.66;100.00;95174.97;4964563;29;20154;-84
2023/09/04 06:04:27;;;;;;;6.47;3.95;;;;;;;19.82;100.00;95172.69;4947796;28;20035;-84
2023/09/04 06:06:53;;;;;;;7.20;3.97;;;;;;;20.08;100.00;95174.69;4947679;29;20045;-84
2023/09/04 06:09:19;;;;;;;9.13;4.22;;;;;;;20.25;100.00;95177.41;4931794;29;20028;-84
2023/09/04 06:11:44;;;;;;;7.47;3.78;;;;;;;20.39;100.00;95173.84;4964874;29;20033;-84
2023/09/04 06:14:10;;;;;;;6.50;4.15;;;;;;;20.55;100.00;95174.94;4931679;29;20425;-85
2023/09/04 06:16:36;;;;;;;7.82;4.22;;;;;;;20.72;100.00;95181.38;4947827;29;20034;-84
2023/09/04 06:19:01;;;;;;;7.20;4.35;;;;;;;20.80;100.00;95183.28;4947526;29;20046;-84
2023/09/04 06:21:27;;;;;;;6.47;3.92;;;;;;;20.93;100.00;95175.50;4947655;29;20047;-84
2023/09/04 06:23:52;;;;;;;6.88;3.75;;;;;;;20.81;100.00;95184.88;4964755;29;20322;-84
2023/09/04 06:26:18;;;;;;;6.80;3.83;;;;;;;20.96;100.00;95188.16;4964817;28;20045;-84
2023/09/04 06:28:43;;;;;;;6.57;4.50;;;;;;;21.12;100.00;95185.81;4947338;29;20035;-85
2023/09/04 06:31:09;;;;;;;11.30;4.10;;;;;;;21.58;100.00;95184.34;4930643;28;20031;-84
2023/09/04 06:33:37;;;;;;;7.55;4.07;;;;;;;21.82;100.00;95184.91;4946663;29;20353;-85
2023/09/04 06:36:04;;;;;;;7.90;4.10;;;;;;;21.40;100.00;95180.16;4931451;29;20444;-84
2023/09/04 06:38:29;;;;;;;9.45;3.47;;;;;;;21.72;100.00;95178.81;4946764;29;20039;-85
2023/09/04 06:40:57;;;;;;;8.48;3.60;;;;;;;21.81;100.00;95176.16;4947030;29;20031;-84
2023/09/04 06:43:32;;;;;;;7.40;3.90;;;;;;;21.87;100.00;95169.53;4947858;29;20166;-85
2023/09/04 06:45:58;;;;;;;9.32;4.80;;;;;;;21.18;100.00;95174.69;4931343;29;20034;-84
2023/09/04 06:48:24;;;;;;;6.65;3.55;;;;;;;21.41;100.00;95179.06;4964502;29;20468;-85
2023/09/04 06:50:52;;;;;;;9.15;3.65;;;;;;;21.62;100.00;95171.16;4940678;29;20043;-84
2023/09/04 06:53:18;;;;;;;7.63;4.45;;;;;;;21.69;100.00;95173.38;4928203;29;20382;-85
2023/09/04 06:55:44;;;;;;;9.20;4.18;;;;;;;21.87;100.00;95182.88;4928306;29;20069;-85
2023/09/04 06:58:09;;;;;;;9.57;3.92;;;;;;;21.94;100.00;95177.03;4936961;28;20043;-85
2023/09/04 07:00:35;;;;;;;6.82;4.50;;;;;;;21.58;100.00;95173.69;4937656;29;20323;-84
2023/09/04 07:03:03;;;;;;;9.20;4.40;;;;;;;21.86;100.00;95181.31;4944293;29;20126;-85
2023/09/04 07:05:28;;;;;;;7.47;4.10;;;;;;;22.09;100.00;95175.69;4943936;29;20027;-84
2023/09/04 07:07:53;;;;;;;8.73;4.90;;;;;;;22.30;100.00;95172.31;4961092;29;20035;-84
2023/09/04 07:10:19;;;;;;;9.88;4.43;;;;;;;22.52;100.00;95175.81;4944070;29;20046;-84
2023/09/04 07:12:44;;;;;;;9.88;4.88;;;;;;;22.69;100.00;95174.94;4961261;29;20155;-84
2023/09/04 07:15:10;;;;;;;9.88;4.70;;;;;;;22.77;100.00;95179.44;4943980;29;20504;-85
2023/09/04 07:17:35;;;;;;;11.13;4.40;;;;;;;22.90;100.00;95174.94;4943894;29;20031;-85
2023/09/04 07:20:00;;;;;;;9.95;4.50;;;;;;;23.09;100.00;95177.13;4943844;29;20035;-85
2023/09/04 07:22:26;;;;;;;9.02;4.82;;;;;;;22.83;100.00;95188.03;4914873;29;20047;-85
2023/09/04 07:24:52;;;;;;;13.23;4.38;;;;;;;23.16;100.00;95189.97;4941961;29;20334;-85
2023/09/04 07:27:17;;;;;;;8.30;4.65;;;;;;;22.84;100.00;95194.94;4943710;29;20031;-85
2023/09/04 07:29:42;;;;;;;8.43;4.55;;;;;;;22.88;100.00;95190.50;4960624;29;20098;-84
2023/09/04 07:32:08;;;;;;;7.43;4.22;;;;;;;23.29;100.00;95196.97;4927490;29;20323;-85
2023/09/04 07:34:33;;;;;;;6.80;3.63;;;;;;;23.61;100.00;95206.41;4943689;29;20039;-85
2023/09/04 07:36:59;;;;;;;9.27;4.78;;;;;;;22.91;100.00;95199.78;4943534;29;20039;-84
2023/09/04 07:39:24;;;;;;;7.03;4.10;;;;;;;23.25;100.00;95209.41;4960569;29;20031;-85
2023/09/04 07:41:49;;;;;;;6.43;3.83;;;;;;;23.50;100.00;95212.16;4943220;29;20361;-85
2023/09/04 07:44:15;;;;;;;8.60;3.92;;;;;;;22.97;100.00;95209.94;4943429;29;20082;-85
2023/09/04 07:46:40;;;;;;;7.28;3.72;;;;;;;23.06;100.00;95215.22;4927145;29;20031;-85
2023/09/04 07:49:06;;;;;;;8.85;3.63;;;;;;;22.47;100.00;95216.81;4960404;29;20073;-84
2023/09/04 07:51:31;;;;;;;12.60;4.00;;;;;;;22.90;100.00;95209.66;4943377;29;20031;-85
2023/09/04 07:53:58;;;;;;;6.97;3.15;;;;;;;22.92;100.00;95214.69;4943231;29;20086;-84
2023/09/04 07:56:24;;;;;;;5.28;3.10;;;;;;;22.86;100.00;95222.13;4960462;29;20039;-85
2023/09/04 07:58:50;;;;;;;8.00;3.70;;;;;;;22.80;100.00;95216.19;4927212;29;20031;-85
2023/09/04 08:01:16;;;;;;;13.23;3.72;;;;;;;22.96;100.00;95212.91;4943052;29;20046;-85
2023/09/04 08:03:41;;;;;;;5.93;2.60;;;;;;;22.81;100.00;95219.63;4942857;29;20082;-84
2023/09/04 08:06:07;;;;;;;3.80;2.67;;;;;;;22.18;100.00;95221.06;4942696;29;20038;-86
2023/09/04 08:08:32;;;;;;;7.20;3.20;;;;;;;22.65;100.00;95222.09;4943027;29;20042;-84
2023/09/04 08:10:58;;;;;;;5.97;2.67;;;;;;;22.89;100.00;95221.44;4959834;28;20039;-85
2023/09/04 08:13:23;;;;;;;5.43;2.50;;;;;;;23.06;100.00;95217.88;4943010;29;20429;-85
2023/09/04 08:15:51;;;;;;;5.47;2.72;;;;;;;23.11;100.00;95224.91;4943164;29;20149;-85
2023/09/04 08:18:17;;;;;;;6.82;2.97;;;;;;;22.89;100.00;95218.78;4927201;29;20038;-85
2023/09/04 08:20:42;;;;;;;5.28;2.58;;;;;;;22.99;100.00;95217.59;4942935;29;20035;-85
2023/09/04 08:23:09;;;;;;;4.72;2.80;;;;;;;23.17;100.00;95218.25;4942476;29;20039;-85
2023/09/04 08:25:35;;;;;;;5.25;2.67;;;;;;;23.05;100.00;95208.31;4942542;29;20453;-85
2023/09/04 08:28:02;;;;;;;5.93;2.60;;;;;;;22.95;100.00;95208.69;4942677;29;20058;-85
2023/09/04 08:30:28;;;;;;;8.27;2.53;;;;;;;22.87;100.00;95203.06;4926859;29;20437;-85
2023/09/04 08:32:53;;;;;;;4.22;2.53;;;;;;;23.11;100.00;95219.56;4942658;29;20035;-85
2023/09/04 08:35:28;;;;;;;9.43;2.95;;;;;;;23.30;100.00;95208.41;4942508;29;20476;-85
2023/09/04 08:38:04;;;;;;;;;;;;;;;;;;;;;
2023/09/04 08:40:41;;;;;;;4.43;2.40;;;;;;;23.25;99.39;95219.28;4943507;29;20343;-85
2023/09/04 08:43:31;;;;;;;;;;;;;;;;;;;;;
2023/09/04 08:46:33;;;;;;;4.95;2.80;;;;;;;23.23;100.00;95219.59;4945095;29;20027;-85
2023/09/04 08:49:36;;;;;;;;;;;;;;;;;;;;;
2023/09/04 08:52:02;;;;;;;5.93;2.60;;;;;;;23.32;100.00;95226.81;4959236;29;20016;-85
2023/09/04 08:54:31;;;;;;;6.00;2.35;;;;;;;23.51;100.00;95224.41;4941991;29;20114;-84
2023/09/04 08:57:35;;;;;;;9.38;2.40;;;;;;;23.57;97.22;95219.66;4941971;29;20442;-85
2023/09/04 09:00:46;;;;;;;;;;;;;;;;;;;;;
2023/09/04 09:03:34;;;;;;;;;;;;;;;;;;;;;
2023/09/04 09:06:00;;;;;;;5.03;2.80;;;;;;;23.76;97.73;95219.16;4933093;29;20453;-85
2023/09/04 09:08:29;;;;;;;3.85;2.10;;;;;;;23.63;100.00;95221.03;4925959;29;20122;-85
2023/09/04 09:10:54;;;;;;;9.80;2.40;;;;;;;24.09;100.00;95225.59;4941871;29;20054;-85
2023/09/04 09:13:20;;;;;;;6.47;2.38;;;;;;;24.00;100.00;95217.63;4942021;29;20043;-85
2023/09/04 09:15:45;;;;;;;5.25;2.20;;;;;;;24.06;100.00;95216.31;4925982;29;20107;-85
2023/09/04 09:18:11;;;;;;;9.75;2.35;;;;;;;24.16;96.36;95217.78;4941632;29;20031;-85
2023/09/04 09:20:44;;;;;;;4.20;2.60;;;;;;;24.16;95.15;95214.34;4941273;29;20117;-85
2023/09/04 09:23:09;;;;;;;5.43;2.20;;;;;;;24.06;95.63;95218.25;4931846;29;20039;-85
2023/09/04 09:25:39;;;;;;;4.18;1.90;;;;;;;23.85;91.05;95214.50;4958696;29;20078;-84
2023/09/04 09:28:06;;;;;;;3.17;1.73;;;;;;;24.27;88.16;95213.53;4926686;29;20031;-85
2023/09/04 09:30:37;;;;;;;4.28;1.90;;;;;;;24.49;90.73;95213.44;4922466;29;20038;-86
2023/09/04 09:33:04;;;;;;;4.68;2.13;;;;;;;24.17;93.64;95205.19;4906732;29;20442;-85
2023/09/04 09:35:31;;;;;;;7.25;2.03;;;;;;;24.41;92.38;95196.38;4939371;29;20043;-85
2023/09/04 09:37:59;;;;;;;3.65;1.65;;;;;;;24.87;96.99;95206.94;4923599;29;20063;-85
2023/09/04 09:40:24;;;;;;;2.08;1.50;;;;;;;24.90;89.47;95206.25;4939150;29;20031;-85
2023/09/04 09:42:52;;;;;;;2.20;1.80;;;;;;;24.99;89.14;95201.53;4933887;29;20054;-85
2023/09/04 09:45:17;;;;;;;3.70;1.80;;;;;;;24.83;89.90;95212.19;4941649;29;20031;-85
2023/09/04 09:47:43;;;;;;;4.35;1.88;;;;;;;25.03;93.39;95190.13;4941093;29;20090;-85
2023/09/04 09:50:08;;;;;;;5.88;1.92;;;;;;;24.80;100.00;95196.00;4941517;29;20062;-86
2023/09/04 09:52:34;;;;;;;5.57;1.88;;;;;;;25.23;91.69;95186.47;4941476;29;20042;-85
2023/09/04 09:54:59;;;;;;;2.83;1.80;;;;;;;25.38;89.03;95194.91;4941416;29;20035;-85
2023/09/04 09:57:26;;;;;;;4.82;2.08;;;;;;;24.75;98.11;95190.84;4941022;29;20429;-86
2023/09/04 09:59:52;;;;;;;4.53;2.00;;;;;;;24.32;99.02;95196.47;4941352;29;20046;-85
2023/09/04 10:02:27;;;;;;;4.57;1.95;;;;;;;24.41;93.33;95197.16;4958252;29;20031;-85
2023/09/04 10:04:53;;;;;;;3.83;1.90;;;;;;;24.68;95.43;95194.09;4941405;29;20330;-85
2023/09/04 10:07:26;;;;;;;3.53;1.83;;;;;;;25.15;91.85;95192.78;4958345;29;20042;-85
2023/09/04 10:10:02;;;;;;;6.72;1.98;;;;;;;24.69;90.73;95201.81;4941245;29;20080;-85
2023/09/04 10:12:33;;;;;;;5.55;2.15;;;;;;;25.30;90.72;95193.94;4942075;29;20330;-85
2023/09/04 10:15:00;;;;;;;4.47;1.55;;;;;;;25.11;86.36;95197.28;4941071;29;20039;-84
2023/09/04 10:18:05;;;;;;;3.95;2.10;;;;;;;25.67;89.19;95198.34;4940810;29;20054;-85
2023/09/04 10:20:33;;;;;;;3.72;2.00;;;;;;;25.36;90.17;95189.09;4957822;29;20090;-85
2023/09/04 10:23:09;;;;;;;4.53;1.77;;;;;;;25.37;85.84;95191.47;4941238;29;20394;-85
2023/09/04 10:25:51;;;;;;;5.32;1.80;;;;;;;25.64;81.82;95191.81;4941291;29;20043;-85
2023/09/04 10:28:51;;;;;;;3.50;2.05;;;;;;;25.67;78.13;95187.63;4940775;29;20034;-85
2023/09/04 10:31:17;;;;;;;4.35;2.10;;;;;;;25.40;79.23;95181.97;4924130;29;20126;-85
2023/09/04 10:33:43;;;;;;;5.07;1.88;;;;;;;25.25;79.67;95184.25;4958221;28;20043;-85
2023/09/04 10:36:09;;;;;;;4.90;1.90;;;;;;;25.58;84.21;95178.97;4928463;29;20194;-85
2023/09/04 10:38:36;;;;;;;4.88;1.77;;;;;;;25.57;77.10;95188.16;4944581;29;20039;-84
2023/09/04 10:41:01;;;;;;;3.65;1.85;;;;;;;25.79;74.29;95179.50;4944482;29;20342;-85
2023/09/04 10:43:43;;;;;;;5.82;1.90;;;;;;;24.80;76.83;95186.06;4944340;29;20043;-85
2023/09/04 10:46:12;;;;;;;2.92;2.03;;;;;;;24.20;85.78;95178.53;4943980;29;20058;-85
2023/09/04 10:48:49;;;;;;;4.35;1.70;;;;;;;24.62;82.17;95184.75;4944206;29;20031;-85
2023/09/04 10:51:34;;;;;;;5.07;1.95;;;;;;;24.22;84.29;95184.34;4944385;29;20027;-85
2023/09/04 10:54:28;;;;;;;2.97;1.73;;;;;;;24.40;90.68;95186.78;4944421;29;20050;-85
2023/09/04 10:56:54;;;;;;;3.22;1.92;;;;;;;24.89;85.35;95185.13;4944191;29;20058;-84
2023/09/04 10:59:20;;;;;;;5.35;1.88;;;;;;;25.60;83.99;95182.09;4961292;29;20409;-85
2023/09/04 11:01:45;;;;;;;5.55;2.03;;;;;;;25.53;75.25;95177.31;4944039;29;20057;-85
2023/09/04 11:04:31;;;;;;;3.78;1.80;;;;;;;25.15;75.32;95176.69;4944263;29;20086;-85
2023/09/04 11:07:21;;;;;;;5.78;1.90;;;;;;;25.29;77.17;95178.19;4944185;29;20035;-85
2023/09/04 11:10:03;;;;;;;6.70;1.90;;;;;;;25.62;74.80;95171.78;4961248;29;20326;-85
2023/09/04 11:12:31;;;;;;;4.22;2.08;;;;;;;25.53;76.92;95175.41;4928163;29;20027;-85
2023/09/04 11:14:57;;;;;;;4.50;2.00;;;;;;;25.69;80.84;95178.13;4943987;29;20114;-85
2023/09/04 11:17:28;;;;;;;6.18;2.20;;;;;;;25.55;77.89;95181.22;4943997;29;20349;-85
2023/09/04 11:19:53;;;;;;;4.68;1.90;;;;;;;25.01;80.99;95170.94;4943998;29;20031;-85
2023/09/04 11:22:20;;;;;;;10.10;2.10;;;;;;;24.42;83.66;95184.53;4928069;29;20031;-85
2023/09/04 11:24:51;;;;;;;6.53;1.88;;;;;;;24.54;87.30;95181.84;4943788;29;20031;-85
2023/09/04 11:27:17;;;;;;;4.75;2.20;;;;;;;24.75;86.51;95182.81;4943875;29;20110;-85
2023/09/04 11:29:42;;;;;;;4.57;2.10;;;;;;;24.87;83.74;95163.25;4960839;29;20035;-85
2023/09/04 11:32:08;;;;;;;3.50;1.63;;;;;;;25.15;77.66;95173.22;4927816;29;20063;-85
2023/09/04 11:34:33;;;;;;;3.53;2.10;;;;;;;25.01;75.62;95173.63;4943695;29;20039;-85